createdAt,value
2017-12-01T00:01:33.859Z,100293.45
2017-12-01T00:03:37.425Z,100297.50
2017-12-01T00:05:40.728Z,100301.55
2017-12-01T00:07:44.080Z,100299.78
2017-12-01T00:09:47.440Z,100299.69
2017-12-01T00:11:50.764Z,100303.41
2017-12-01T00:13:54.069Z,100309.23
2017-12-01T00:15:57.411Z,100311.00
2017-12-01T00:18:00.706Z,100307.05
2017-12-01T00:20:04.084Z,100305.59
2017-12-01T00:22:07.445Z,100310.67
2017-12-01T00:24:10.797Z,100309.74
2017-12-01T00:26:14.463Z,100311.61
2017-12-01T00:28:17.835Z,100316.08
2017-12-01T00:30:21.199Z,100317.97
2017-12-01T00:32:24.538Z,100319.70
2017-12-01T00:34:27.866Z,100321.18
2017-12-01T00:36:31.319Z,100318.90
2017-12-01T00:38:34.711Z,100327.52
2017-12-01T00:40:38.076Z,100322.11
2017-12-01T00:42:41.386Z,100329.80
2017-12-01T00:44:44.751Z,100331.56
2017-12-01T00:46:48.141Z,100329.80
2017-12-01T00:48:51.452Z,100332.91
2017-12-01T00:50:54.785Z,100330.72
2017-12-01T00:52:58.202Z,100338.82
2017-12-01T00:55:01.500Z,100334.77
2017-12-01T00:57:04.820Z,100333.00
2017-12-01T00:59:08.219Z,100339.84
2017-12-01T01:01:11.529Z,100346.08
2017-12-01T01:03:14.837Z,100345.66
2017-12-01T01:05:18.421Z,100347.02
2017-12-01T01:07:21.784Z,100349.71
2017-12-01T01:09:25.063Z,100359.06
2017-12-01T01:11:28.467Z,100364.56
2017-12-01T01:13:31.753Z,100368.61
2017-12-01T01:15:35.130Z,100369.54
2017-12-01T01:17:38.462Z,100368.61
2017-12-01T01:19:41.774Z,100374.94
2017-12-01T01:21:45.104Z,100378.47
2017-12-01T01:23:48.513Z,100384.39
2017-12-01T01:25:51.833Z,100376.29
2017-12-01T01:27:55.138Z,100385.31
2017-12-01T01:29:58.472Z,100390.20
2017-12-01T01:32:01.775Z,100390.72
2017-12-01T01:34:05.083Z,100388.95
2017-12-01T01:36:08.417Z,100396.53
2017-12-01T01:38:11.707Z,100390.84
2017-12-01T01:40:15.007Z,100395.28
2017-12-01T01:42:18.326Z,100398.94
2017-12-01T01:44:21.621Z,100399.33
2017-12-01T01:46:24.958Z,100410.55
2017-12-01T01:48:28.336Z,100403.92
2017-12-01T01:50:31.724Z,100401.09
2017-12-01T01:52:35.074Z,100406.91
2017-12-01T01:54:38.395Z,100411.47
2017-12-01T01:56:41.796Z,100414.17
2017-12-01T01:58:45.119Z,100418.64
2017-12-01T02:00:48.480Z,100415.52
2017-12-01T02:02:51.799Z,100418.22
2017-12-01T02:04:55.117Z,100419.57
2017-12-01T02:06:58.590Z,100420.53
2017-12-01T02:09:01.861Z,100420.63
2017-12-01T02:11:05.293Z,100424.17
2017-12-01T02:13:08.634Z,100428.22
2017-12-01T02:15:12.020Z,100426.32
2017-12-01T02:17:15.324Z,100434.03
2017-12-01T02:19:18.763Z,100434.55
2017-12-01T02:21:22.081Z,100435.89
2017-12-01T02:23:25.526Z,100440.78
2017-12-01T02:25:28.849Z,100444.41
2017-12-01T02:27:32.191Z,100444.41
2017-12-01T02:29:35.500Z,100445.85
2017-12-01T02:31:38.832Z,100444.50
2017-12-01T02:33:42.141Z,100451.67
2017-12-01T02:35:45.483Z,100452.09
2017-12-01T02:37:48.812Z,100445.85
2017-12-01T02:39:52.140Z,100450.83
2017-12-01T02:41:55.458Z,100454.88
2017-12-01T02:43:58.796Z,100454.47
2017-12-01T02:46:02.121Z,100456.66
2017-12-01T02:48:05.429Z,100460.19
2017-12-01T02:50:08.852Z,100462.47
2017-12-01T02:52:12.210Z,100463.91
2017-12-01T02:54:15.502Z,100466.61
2017-12-01T02:56:18.998Z,100472.01
2017-12-01T02:58:22.284Z,100472.94
2017-12-01T03:00:25.670Z,100476.48
2017-12-01T03:02:28.988Z,100473.78
2017-12-01T03:04:32.295Z,100485.41
2017-12-01T03:06:35.616Z,100481.45
2017-12-01T03:08:39.065Z,100477.83
2017-12-01T03:10:42.471Z,100483.22
2017-12-01T03:12:45.804Z,100483.22
2017-12-01T03:14:49.125Z,100485.51
2017-12-01T03:16:52.500Z,100485.51
2017-12-01T03:18:55.791Z,100491.84
2017-12-01T03:20:59.144Z,100491.84
2017-12-01T03:23:02.469Z,100494.53
2017-12-01T03:25:05.891Z,100499.00
2017-12-01T03:27:09.197Z,100501.70
2017-12-01T03:29:12.504Z,100504.91
2017-12-01T03:31:15.833Z,100505.75
2017-12-01T03:33:19.148Z,100501.28
2017-12-01T03:35:22.511Z,100507.10
2017-12-01T03:37:25.807Z,100510.83
2017-12-01T03:39:29.166Z,100509.89
2017-12-01T03:41:32.463Z,100509.47
2017-12-01T03:43:35.818Z,100518.92
2017-12-01T03:45:39.268Z,100514.78
2017-12-01T03:47:42.657Z,100525.67
2017-12-01T03:49:45.980Z,100525.58
2017-12-01T03:51:49.337Z,100530.05
2017-12-01T03:53:52.611Z,100536.38
2017-12-01T03:55:55.908Z,100540.42
2017-12-01T03:57:59.310Z,100538.23
2017-12-01T04:00:02.597Z,100543.22
2017-12-01T04:02:05.977Z,100546.84
2017-12-01T04:04:09.305Z,100549.55
2017-12-01T04:06:12.604Z,100555.36
2017-12-01T04:08:15.901Z,100555.87
2017-12-01T04:10:19.299Z,100555.87
2017-12-01T04:12:22.602Z,100557.12
2017-12-01T04:14:26.005Z,100567.52
2017-12-01T04:16:29.375Z,100561.81
2017-12-01T04:18:32.687Z,100565.45
2017-12-01T04:20:35.989Z,100573.42
2017-12-01T04:22:39.436Z,100572.07
2017-12-01T04:24:42.737Z,100572.19
2017-12-01T04:26:46.181Z,100577.89
2017-12-01T04:28:49.578Z,100582.06
2017-12-01T04:30:52.857Z,100587.97
2017-12-01T04:32:56.152Z,100586.53
2017-12-01T04:34:59.464Z,100592.44
2017-12-01T04:37:02.777Z,100596.91
2017-12-01T04:39:06.164Z,100599.61
2017-12-01T04:41:09.547Z,100602.81
2017-12-01T04:43:12.852Z,100604.17
2017-12-01T04:45:16.143Z,100605.94
2017-12-01T04:47:19.527Z,100615.38
2017-12-01T04:49:22.977Z,100619.02
2017-12-01T04:51:26.313Z,100620.36
2017-12-01T04:53:29.763Z,100619.10
2017-12-01T04:55:33.108Z,100626.69
2017-12-01T04:57:36.448Z,100625.94
2017-12-01T04:59:39.847Z,100630.41
2017-12-01T05:01:43.153Z,100637.58
2017-12-01T05:03:46.472Z,100643.40
2017-12-01T05:05:49.802Z,100644.33
2017-12-01T05:07:53.137Z,100651.08
2017-12-01T05:09:56.546Z,100654.70
2017-12-01T05:11:59.959Z,100655.13
2017-12-01T05:14:03.283Z,100656.05
2017-12-01T05:16:06.588Z,100652.94
2017-12-01T05:18:09.926Z,100656.98
2017-12-01T05:20:13.226Z,100659.27
2017-12-01T05:22:16.523Z,100666.44
2017-12-01T05:24:19.973Z,100663.31
2017-12-01T05:26:23.260Z,100666.44
2017-12-01T05:28:26.560Z,100669.88
2017-12-01T05:30:30.185Z,100676.30
2017-12-01T05:32:33.528Z,100674.53
2017-12-01T05:34:36.832Z,100673.69
2017-12-01T05:36:40.216Z,100684.40
2017-12-01T05:38:43.533Z,100686.26
2017-12-01T05:40:46.887Z,100692.50
2017-12-01T05:42:50.352Z,100697.05
2017-12-01T05:44:53.737Z,100702.88
2017-12-01T05:46:57.040Z,100703.80
2017-12-01T05:49:00.469Z,100711.48
2017-12-01T05:51:03.808Z,100709.20
2017-12-01T05:53:07.165Z,100715.95
2017-12-01T05:55:10.509Z,100724.98
2017-12-01T05:57:13.820Z,100725.91
2017-12-01T05:59:17.128Z,100728.22
2017-12-01T06:01:20.496Z,100731.30
2017-12-01T06:03:23.854Z,100736.70
2017-12-01T06:05:27.169Z,100727.38
2017-12-01T06:07:30.496Z,100732.78
2017-12-01T06:09:33.921Z,100738.59
2017-12-01T06:11:37.216Z,100744.50
2017-12-01T06:13:40.710Z,100749.39
2017-12-01T06:15:43.980Z,100749.91
2017-12-01T06:17:47.389Z,100752.09
2017-12-01T06:19:50.756Z,100755.72
2017-12-01T06:21:54.089Z,100757.91
2017-12-01T06:23:57.393Z,100762.47
2017-12-01T06:26:00.709Z,100757.07
2017-12-01T06:28:04.044Z,100765.17
2017-12-01T06:30:07.433Z,100759.34
2017-12-01T06:32:10.756Z,100763.40
2017-12-01T06:34:14.065Z,100770.56
2017-12-01T06:36:17.381Z,100775.97
2017-12-01T06:38:20.692Z,100779.50
2017-12-01T06:40:23.997Z,100786.25
2017-12-01T06:42:27.374Z,100792.04
2017-12-01T06:44:30.672Z,100795.28
2017-12-01T06:46:34.012Z,100802.45
2017-12-01T06:48:37.452Z,100803.68
2017-12-01T06:50:40.749Z,100809.20
2017-12-01T06:52:44.042Z,100805.54
2017-12-01T06:54:47.404Z,100819.03
2017-12-01T06:56:50.789Z,100824.44
2017-12-01T06:58:54.126Z,100832.02
2017-12-01T07:00:57.455Z,100837.33
2017-12-01T07:03:00.881Z,100835.98
2017-12-01T07:05:04.273Z,100836.41
2017-12-01T07:07:07.548Z,100840.87
2017-12-01T07:09:10.901Z,100850.74
2017-12-01T07:11:14.344Z,100851.25
2017-12-01T07:13:17.739Z,100853.86
2017-12-01T07:15:21.283Z,100856.14
2017-12-01T07:17:24.564Z,100860.91
2017-12-01T07:19:27.868Z,100866.73
2017-12-01T07:21:31.250Z,100870.78
2017-12-01T07:23:34.561Z,100876.60
2017-12-01T07:25:37.873Z,100870.70
2017-12-01T07:27:41.211Z,100875.16
2017-12-01T07:29:44.506Z,100877.78
2017-12-01T07:31:47.852Z,100883.17
2017-12-01T07:33:51.254Z,100885.88
2017-12-01T07:35:54.638Z,100887.65
2017-12-01T07:37:57.933Z,100892.42
2017-12-01T07:40:01.244Z,100892.96
2017-12-01T07:42:04.549Z,100887.44
2017-12-01T07:44:13.631Z,100896.38
2017-12-01T07:46:16.950Z,100904.48
2017-12-01T07:48:20.276Z,100910.72
2017-12-01T07:50:23.580Z,100913.42
2017-12-01T07:52:26.963Z,100915.61
2017-12-01T07:54:30.308Z,100921.44
2017-12-01T07:56:33.676Z,100923.62
2017-12-01T07:58:36.994Z,100930.80
2017-12-01T08:00:40.283Z,100936.20
2017-12-01T08:02:43.612Z,100944.69
2017-12-01T08:04:46.969Z,100943.25
2017-12-01T08:06:50.327Z,100950.84
2017-12-01T08:08:53.603Z,100948.56
2017-12-01T08:10:56.943Z,100951.59
2017-12-01T08:13:00.296Z,100952.95
2017-12-01T08:15:03.664Z,100962.39
2017-12-01T08:17:18.987Z,100963.63
2017-12-01T08:19:22.275Z,100972.69
2017-12-01T08:24:12.280Z,100981.17
2017-12-01T08:26:15.621Z,100986.48
2017-12-01T08:28:18.964Z,100989.61
2017-12-01T08:30:22.374Z,100994.50
2017-12-01T08:32:25.708Z,101000.75
2017-12-01T08:34:29.007Z,101003.45
2017-12-01T08:36:32.330Z,101007.83
2017-12-01T08:38:35.806Z,101011.88
2017-12-01T08:40:39.289Z,101015.81
2017-12-01T08:42:42.686Z,101015.81
2017-12-01T08:44:45.979Z,101016.57
2017-12-01T08:46:49.303Z,101016.48
2017-12-01T08:48:52.661Z,101020.33
2017-12-01T08:50:56.434Z,101029.78
2017-12-01T08:52:59.792Z,101026.48
2017-12-01T08:55:03.157Z,101034.92
2017-12-01T08:57:06.616Z,101035.65
2017-12-01T08:59:11.373Z,101032.86
2017-12-01T09:01:14.730Z,101037.67
2017-12-01T09:03:18.118Z,101035.69
2017-12-01T09:05:21.516Z,101044.97
2017-12-01T09:07:25.047Z,101042.57
2017-12-01T09:09:28.373Z,101046.95
2017-12-01T09:11:31.732Z,101054.89
2017-12-01T09:13:35.057Z,101056.97
2017-12-01T09:15:38.391Z,101054.09
2017-12-01T09:17:41.919Z,101056.59
2017-12-01T09:19:45.364Z,101058.69
2017-12-01T09:21:48.684Z,101064.01
2017-12-01T09:23:52.007Z,101074.19
2017-12-01T09:25:55.377Z,101073.50
2017-12-01T09:27:58.721Z,101080.14
2017-12-01T09:30:02.072Z,101079.55
2017-12-01T09:32:06.576Z,101080.81
2017-12-01T09:34:09.963Z,101080.61
2017-12-01T09:36:13.428Z,101088.95
2017-12-01T09:38:16.864Z,101092.92
2017-12-01T09:40:20.165Z,101100.49
2017-12-01T09:42:23.508Z,101101.25
2017-12-01T09:44:27.164Z,101105.94
2017-12-01T09:46:30.577Z,101107.71
2017-12-01T09:48:33.896Z,101116.58
2017-12-01T09:50:37.299Z,101121.77
2017-12-01T09:52:40.635Z,101116.79
2017-12-01T09:54:43.924Z,101122.53
2017-12-01T09:56:47.261Z,101130.55
2017-12-01T09:58:50.618Z,101125.98
2017-12-01T10:00:53.948Z,101132.23
2017-12-01T10:02:57.285Z,101139.38
2017-12-01T10:05:00.696Z,101138.03
2017-12-01T10:07:03.990Z,101141.70
2017-12-01T10:09:07.344Z,101139.92
2017-12-01T10:11:10.752Z,101142.20
2017-12-01T10:13:14.138Z,101152.89
2017-12-01T10:15:17.490Z,101147.48
2017-12-01T10:17:20.844Z,101145.20
2017-12-01T10:19:24.494Z,101145.20
2017-12-01T10:21:27.935Z,101145.63
2017-12-01T10:23:31.322Z,101146.89
2017-12-01T10:25:34.613Z,101149.93
2017-12-01T10:27:37.980Z,101148.07
2017-12-01T10:29:41.400Z,101151.58
2017-12-01T10:31:44.842Z,101147.53
2017-12-01T10:33:48.153Z,101152.43
2017-12-01T10:35:51.488Z,101157.75
2017-12-01T10:37:54.799Z,101154.53
2017-12-01T10:39:58.224Z,101152.77
2017-12-01T10:42:01.537Z,101155.47
2017-12-01T10:44:04.847Z,101157.16
2017-12-01T10:46:08.225Z,101156.73
2017-12-01T10:48:11.571Z,101157.58
2017-12-01T10:50:15.006Z,101162.05
2017-12-01T10:52:18.365Z,101166.11
2017-12-01T10:54:21.727Z,101168.27
2017-12-01T10:56:25.313Z,101166.83
2017-12-01T10:58:28.680Z,101172.73
2017-12-01T11:00:31.981Z,101164.55
2017-12-01T11:02:35.270Z,101167.20
2017-12-01T11:04:38.615Z,101174.80
2017-12-01T11:06:41.930Z,101169.27
2017-12-01T11:08:45.267Z,101166.99
2017-12-01T11:10:48.613Z,101167.83
2017-12-01T11:12:51.924Z,101174.51
2017-12-01T11:14:55.228Z,101173.48
2017-12-01T11:16:58.620Z,101181.48
2017-12-01T11:19:01.924Z,101192.63
2017-12-01T11:21:05.396Z,101189.41
2017-12-01T11:23:08.740Z,101191.70
2017-12-01T11:25:12.097Z,101185.87
2017-12-01T11:27:15.440Z,101186.80
2017-12-01T11:29:20.304Z,101189.50
2017-12-01T11:31:23.632Z,101198.54
2017-12-01T11:33:27.772Z,101200.01
2017-12-01T11:35:31.089Z,101204.57
2017-12-01T11:37:34.412Z,101199.17
2017-12-01T11:39:37.994Z,101207.27
2017-12-01T11:41:41.509Z,101209.22
2017-12-01T11:43:44.819Z,101209.73
2017-12-01T11:45:48.151Z,101209.73
2017-12-01T11:47:51.589Z,101219.27
2017-12-01T11:49:55.007Z,101218.88
2017-12-01T11:51:58.348Z,101220.83
2017-12-01T11:54:03.191Z,101222.23
2017-12-01T11:56:06.491Z,101220.45
2017-12-01T11:58:09.856Z,101221.38
2017-12-01T12:00:13.236Z,101228.26
2017-12-01T12:02:16.584Z,101232.82
2017-12-01T12:04:19.870Z,101235.61
2017-12-01T12:06:23.271Z,101232.48
2017-12-01T12:08:26.580Z,101240.17
2017-12-01T12:10:29.909Z,101247.02
2017-12-01T12:12:33.236Z,101247.02
2017-12-01T12:14:36.587Z,101247.94
2017-12-01T12:16:39.875Z,101254.27
2017-12-01T12:18:43.236Z,101255.62
2017-12-01T12:20:46.632Z,101252.92
2017-12-01T12:22:50.244Z,101254.39
2017-12-01T12:24:53.664Z,101259.80
2017-12-01T12:26:56.956Z,101261.66
2017-12-01T12:29:00.247Z,101254.05
2017-12-01T12:31:03.598Z,101258.53
2017-12-01T12:33:06.994Z,101256.84
2017-12-01T12:35:10.342Z,101253.84
2017-12-01T12:37:13.649Z,101259.63
2017-12-01T12:39:17.112Z,101257.47
2017-12-01T12:41:20.441Z,101252.48
2017-12-01T12:43:23.805Z,101256.20
2017-12-01T12:45:27.178Z,101255.78
2017-12-01T12:47:30.502Z,101263.04
2017-12-01T12:49:33.927Z,101267.01
2017-12-01T12:51:37.217Z,101268.02
2017-12-01T12:53:40.505Z,101264.90
2017-12-01T12:55:43.892Z,101268.53
2017-12-01T12:57:47.243Z,101279.76
2017-12-01T12:59:50.595Z,101269.45
2017-12-01T13:01:53.984Z,101272.70
2017-12-01T13:03:57.343Z,101273.63
2017-12-01T13:06:00.663Z,101270.08
2017-12-01T13:08:04.068Z,101267.80
2017-12-01T13:10:07.435Z,101268.81
2017-12-01T13:12:10.760Z,101269.66
2017-12-01T13:14:14.088Z,101271.94
2017-12-01T13:16:17.422Z,101266.11
2017-12-01T13:18:20.732Z,101272.36
2017-12-01T13:20:24.055Z,101272.45
2017-12-01T13:22:27.445Z,101283.25
2017-12-01T13:24:30.852Z,101286.46
2017-12-01T13:26:34.215Z,101283.34
2017-12-01T13:28:37.676Z,101288.66
2017-12-01T13:30:40.983Z,101290.01
2017-12-01T13:32:44.296Z,101295.41
2017-12-01T13:34:47.630Z,101287.81
2017-12-01T13:36:50.979Z,101286.97
2017-12-01T13:38:54.321Z,101293.72
2017-12-01T13:40:57.640Z,101301.32
2017-12-01T13:43:00.983Z,101302.25
2017-12-01T13:45:04.356Z,101304.95
2017-12-01T13:47:07.662Z,101307.66
2017-12-01T13:49:10.987Z,101299.21
2017-12-01T13:51:14.404Z,101300.95
2017-12-01T13:53:17.770Z,101298.47
2017-12-01T13:55:21.084Z,101310.34
2017-12-01T13:57:24.426Z,101308.91
2017-12-01T13:59:27.729Z,101309.75
2017-12-01T14:01:31.100Z,101309.20
2017-12-01T14:03:34.438Z,101310.38
2017-12-01T14:05:37.750Z,101314.72
2017-12-01T14:07:41.093Z,101326.66
2017-12-01T14:09:44.385Z,101320.23
2017-12-01T14:11:47.688Z,101322.80
2017-12-01T14:13:50.980Z,101322.88
2017-12-01T14:15:54.361Z,101323.78
2017-12-01T14:17:57.693Z,101329.24
2017-12-01T14:20:01.012Z,101328.37
2017-12-01T14:22:04.358Z,101330.67
2017-12-01T14:24:07.750Z,101335.21
2017-12-01T14:26:11.149Z,101334.34
2017-12-01T14:28:14.538Z,101342.93
2017-12-01T14:30:17.851Z,101339.95
2017-12-01T14:32:21.215Z,101342.30
2017-12-01T14:34:24.568Z,101348.77
2017-12-01T14:36:27.977Z,101351.10
2017-12-01T14:38:31.294Z,101357.10
2017-12-01T14:40:34.679Z,101360.88
2017-12-01T14:42:37.976Z,101369.55
2017-12-01T14:44:41.300Z,101367.10
2017-12-01T14:46:44.815Z,101377.13
2017-12-01T14:48:48.121Z,101376.42
2017-12-01T14:50:51.475Z,101383.43
2017-12-01T14:52:54.816Z,101383.57
2017-12-01T14:54:58.133Z,101387.77
2017-12-01T14:57:01.458Z,101393.82
2017-12-01T14:59:04.887Z,101399.91
2017-12-01T15:01:08.290Z,101404.18
2017-12-01T15:03:11.570Z,101406.61
2017-12-01T15:05:14.896Z,101405.52
2017-12-01T15:07:18.258Z,101408.98
2017-12-01T15:09:21.551Z,101419.50
2017-12-01T15:11:24.893Z,101418.80
2017-12-01T15:13:28.180Z,101424.97
2017-12-01T15:15:31.654Z,101427.05
2017-12-01T15:17:34.957Z,101428.23
2017-12-01T15:19:38.306Z,101425.38
2017-12-01T15:21:41.597Z,101426.61
2017-12-01T15:23:44.925Z,101429.65
2017-12-01T15:25:48.264Z,101433.53
2017-12-01T15:27:51.700Z,101440.09
2017-12-01T15:29:55.146Z,101443.56
2017-12-01T15:31:58.421Z,101454.68
2017-12-01T15:34:01.746Z,101448.69
2017-12-01T15:36:05.060Z,101447.67
2017-12-01T15:38:08.451Z,101459.22
2017-12-01T15:40:11.751Z,101454.66
2017-12-01T15:42:15.205Z,101450.98
2017-12-01T15:44:18.501Z,101462.94
2017-12-01T15:46:21.893Z,101462.86
2017-12-01T15:48:25.484Z,101466.41
2017-12-01T15:50:28.766Z,101466.63
2017-12-01T15:52:32.162Z,101469.34
2017-12-01T15:54:35.475Z,101467.90
2017-12-01T15:56:38.772Z,101471.45
2017-12-01T15:58:42.204Z,101480.74
2017-12-01T16:00:45.542Z,101479.70
2017-12-01T16:02:48.916Z,101481.48
2017-12-01T16:04:52.226Z,101481.81
2017-12-01T16:06:55.556Z,101483.59
2017-12-01T16:08:58.895Z,101482.16
2017-12-01T16:11:02.216Z,101486.95
2017-12-01T16:13:05.570Z,101489.48
2017-12-01T16:15:08.963Z,101500.94
2017-12-01T16:17:12.260Z,101495.03
2017-12-01T16:19:15.643Z,101497.66
2017-12-01T16:21:19.000Z,101492.16
2017-12-01T16:23:22.321Z,101492.89
2017-12-01T16:25:25.644Z,101497.80
2017-12-01T16:27:29.011Z,101504.89
2017-12-01T16:29:32.420Z,101503.55
2017-12-01T16:31:35.756Z,101506.98
2017-12-01T16:33:39.183Z,101509.09
2017-12-01T16:35:42.476Z,101510.87
2017-12-01T16:37:45.860Z,101517.00
2017-12-01T16:39:49.154Z,101518.78
2017-12-01T16:41:52.537Z,101517.34
2017-12-01T16:43:55.873Z,101522.59
2017-12-01T16:45:59.268Z,101520.81
2017-12-01T16:48:02.574Z,101527.38
2017-12-01T16:50:06.005Z,101527.80
2017-12-01T16:52:09.317Z,101533.55
2017-12-01T16:54:12.623Z,101531.27
2017-12-01T16:56:15.958Z,101533.47
2017-12-01T16:58:19.253Z,101537.94
2017-12-01T17:00:22.656Z,101543.23
2017-12-01T17:02:25.994Z,101543.23
2017-12-01T17:04:29.308Z,101544.93
2017-12-01T17:06:32.616Z,101550.77
2017-12-01T17:08:36.077Z,101551.19
2017-12-01T17:10:39.396Z,101554.31
2017-12-01T17:12:42.684Z,101555.58
2017-12-01T17:14:46.092Z,101561.41
2017-12-01T17:16:49.396Z,101560.45
2017-12-01T17:18:52.774Z,101569.33
2017-12-01T17:20:56.132Z,101573.30
2017-12-01T17:22:59.492Z,101572.87
2017-12-01T17:25:02.795Z,101571.11
2017-12-01T17:27:06.160Z,101572.03
2017-12-01T17:29:09.528Z,101574.82
2017-12-01T17:31:12.856Z,101577.52
2017-12-01T17:33:16.163Z,101580.73
2017-12-01T17:35:19.587Z,101585.83
2017-12-01T17:37:22.999Z,101584.56
2017-12-01T17:39:26.357Z,101588.70
2017-12-01T17:41:29.779Z,101592.84
2017-12-01T17:43:33.088Z,101588.90
2017-12-01T17:45:36.516Z,101593.88
2017-12-01T17:47:39.864Z,101596.67
2017-12-01T17:49:43.226Z,101600.38
2017-12-01T17:51:46.627Z,101608.19
2017-12-01T17:53:50.002Z,101611.82
2017-12-01T17:58:03.535Z,101611.56
2017-12-01T18:00:06.862Z,101616.13
2017-12-01T18:02:10.247Z,101617.59
2017-12-01T18:04:13.550Z,101617.16
2017-12-01T18:06:17.029Z,101613.61
2017-12-01T18:08:20.368Z,101620.03
2017-12-01T18:10:23.714Z,101626.87
2017-12-01T18:12:27.012Z,101623.35
2017-12-01T18:14:30.393Z,101629.77
2017-12-01T18:16:33.684Z,101626.22
2017-12-01T18:18:37.007Z,101628.92
2017-12-01T18:20:40.362Z,101631.40
2017-12-01T18:22:43.773Z,101630.44
2017-12-01T18:24:47.094Z,101638.16
2017-12-01T18:26:50.384Z,101631.48
2017-12-01T18:28:53.727Z,101645.08
2017-12-01T18:30:57.119Z,101644.23
2017-12-01T18:33:00.715Z,101651.06
2017-12-01T18:35:04.039Z,101646.70
2017-12-01T18:37:07.397Z,101655.73
2017-12-01T18:39:10.671Z,101662.58
2017-12-01T18:41:14.000Z,101661.39
2017-12-01T18:43:17.358Z,101660.15
2017-12-01T18:45:20.703Z,101667.41
2017-12-01T18:47:24.060Z,101665.22
2017-12-01T18:49:27.390Z,101675.69
2017-12-01T18:51:30.748Z,101673.09
2017-12-01T18:53:34.091Z,101679.08
2017-12-01T18:55:38.393Z,101679.59
2017-12-01T18:57:41.732Z,101686.00
2017-12-01T18:59:45.045Z,101682.48
2017-12-01T19:01:48.389Z,101686.19
2017-12-01T19:03:51.697Z,101686.27
2017-12-01T19:05:55.047Z,101689.32
2017-12-01T19:07:58.374Z,101689.48
2017-12-01T19:10:01.681Z,101692.61
2017-12-01T19:12:05.112Z,101691.02
2017-12-01T19:14:08.486Z,101700.91
2017-12-01T19:16:11.988Z,101696.55
2017-12-01T19:18:15.296Z,101702.89
2017-12-01T19:20:18.654Z,101706.02
2017-12-01T19:22:22.073Z,101706.63
2017-12-01T19:24:25.500Z,101714.31
2017-12-01T19:26:28.879Z,101711.19
2017-12-01T19:28:32.192Z,101707.72
2017-12-01T19:30:35.545Z,101709.92
2017-12-01T19:32:38.860Z,101712.28
2017-12-01T19:34:42.269Z,101716.33
2017-12-01T19:36:45.693Z,101716.95
2017-12-01T19:38:48.997Z,101721.42
2017-12-01T19:40:52.309Z,101721.50
2017-12-01T19:42:55.680Z,101728.77
2017-12-01T19:44:59.438Z,101728.77
2017-12-01T19:47:03.331Z,101730.62
2017-12-01T19:49:06.741Z,101733.82
2017-12-01T19:51:11.458Z,101729.95
2017-12-01T19:53:15.349Z,101737.64
2017-12-01T19:55:18.858Z,101743.97
2017-12-01T19:57:22.163Z,101740.00
2017-12-01T19:59:25.530Z,101749.03
2017-12-01T20:01:28.909Z,101745.06
2017-12-01T20:03:32.388Z,101750.04
2017-12-01T20:05:36.109Z,101746.52
2017-12-01T20:07:39.567Z,101752.42
2017-12-01T20:09:42.938Z,101746.67
2017-12-01T20:11:46.311Z,101753.44
2017-12-01T20:13:49.681Z,101756.14
2017-12-01T20:15:53.019Z,101757.98
2017-12-01T20:17:56.328Z,101761.62
2017-12-01T20:19:59.693Z,101765.78
2017-12-01T20:22:03.378Z,101764.01
2017-12-01T20:24:06.807Z,101769.06
2017-12-01T20:26:10.116Z,101769.06
2017-12-01T20:28:13.441Z,101779.03
2017-12-01T20:30:16.732Z,101772.77
2017-12-01T20:32:20.084Z,101775.98
2017-12-01T20:34:23.428Z,101782.23
2017-12-01T20:36:26.928Z,101779.22
2017-12-01T20:38:31.230Z,101776.59
2017-12-01T20:40:34.543Z,101786.05
2017-12-01T20:42:37.980Z,101782.58
2017-12-01T20:44:41.480Z,101791.61
2017-12-01T20:46:45.664Z,101786.70
2017-12-01T20:48:48.978Z,101791.30
2017-12-01T20:50:52.390Z,101789.52
2017-12-01T20:52:55.778Z,101799.41
2017-12-01T20:54:59.061Z,101795.92
2017-12-01T20:57:02.465Z,101803.61
2017-12-01T20:59:05.768Z,101807.66
2017-12-01T21:01:09.127Z,101811.29
2017-12-01T21:03:12.404Z,101809.16
2017-12-01T21:05:15.765Z,101810.52
2017-12-01T21:07:19.049Z,101817.27
2017-12-01T21:09:22.485Z,101819.58
2017-12-01T21:11:25.773Z,101824.14
2017-12-01T21:13:29.165Z,101821.09
2017-12-01T21:15:32.543Z,101826.92
2017-12-01T21:17:35.942Z,101826.57
2017-12-01T21:19:39.228Z,101825.33
2017-12-01T21:21:42.614Z,101833.44
2017-12-01T21:23:45.908Z,101833.52
2017-12-01T21:25:49.342Z,101839.41
2017-12-01T21:27:52.840Z,101842.20
2017-12-01T21:29:56.154Z,101845.24
2017-12-01T21:31:59.608Z,101843.12
2017-12-01T21:34:03.665Z,101848.52
2017-12-01T21:36:06.941Z,101851.23
2017-12-01T21:38:10.479Z,101852.66
2017-12-01T21:40:13.799Z,101852.27
2017-12-01T21:42:17.103Z,101856.39
2017-12-01T21:44:20.446Z,101861.80
2017-12-01T21:46:23.779Z,101855.54
2017-12-01T21:48:27.085Z,101859.59
2017-12-01T21:50:30.376Z,101866.42
2017-12-01T21:52:33.692Z,101863.38
2017-12-01T21:54:36.985Z,101866.92
2017-12-01T21:56:40.532Z,101868.38
2017-12-01T21:58:43.908Z,101873.78
2017-12-01T22:00:47.217Z,101868.46
2017-12-01T22:02:50.513Z,101869.81
2017-12-01T22:04:53.922Z,101877.06
2017-12-01T22:06:57.227Z,101871.66
2017-12-01T22:09:00.578Z,101873.09
2017-12-01T22:11:03.936Z,101872.24
2017-12-01T22:13:07.244Z,101874.52
2017-12-01T22:15:10.615Z,101876.30
2017-12-01T22:17:13.940Z,101877.75
2017-12-01T22:19:17.289Z,101878.67
2017-12-01T22:21:20.585Z,101875.98
2017-12-01T22:23:23.946Z,101873.78
2017-12-01T22:25:27.349Z,101868.88
2017-12-01T22:27:30.620Z,101880.61
2017-12-01T22:29:33.986Z,101876.98
2017-12-01T22:31:37.337Z,101880.18
2017-12-01T22:33:40.652Z,101877.55
2017-12-01T22:35:43.991Z,101885.66
2017-12-01T22:37:47.407Z,101889.29
2017-12-01T22:39:50.901Z,101891.56
2017-12-01T22:41:54.344Z,101900.63
2017-12-01T22:43:57.644Z,101894.87
2017-12-01T22:46:00.986Z,101907.03
2017-12-01T22:48:04.395Z,101902.05
2017-12-01T22:50:07.712Z,101902.13
2017-12-01T22:52:11.062Z,101896.38
2017-12-01T22:54:14.440Z,101892.75
2017-12-01T22:56:17.790Z,101890.05
2017-12-01T22:58:21.058Z,101899.08
2017-12-01T23:00:24.462Z,101892.44
2017-12-01T23:02:27.762Z,101904.98
2017-12-01T23:04:31.094Z,101902.39
2017-12-01T23:06:34.406Z,101901.96
2017-12-01T23:08:37.714Z,101903.31
2017-12-01T23:10:41.029Z,101904.73
2017-12-01T23:12:44.392Z,101900.69
2017-12-01T23:14:47.741Z,101903.81
2017-12-01T23:16:51.096Z,101909.30
2017-12-01T23:18:54.412Z,101902.54
2017-12-01T23:20:57.759Z,101906.16
2017-12-01T23:23:01.063Z,101901.27
2017-12-01T23:25:04.399Z,101903.96
2017-12-01T23:27:07.784Z,101902.19
2017-12-01T23:29:11.121Z,101902.19
2017-12-01T23:31:14.480Z,101902.72
2017-12-01T23:33:17.779Z,101903.15